Terminal Aerodrome Forecast
Issued by NWS Cleveland, OH

Home | Current Version | Previous Version | Graphics & Text | Print | Product List | Glossary On
Versions: 1 2 3 4 5 6 7 8 9 10 11 12 13 14 15 16 17 18 19 20 21 22 23 24 25 26 27 28 29 30 31 32
000
FTUS41 KCLE 131158 CCA
TAFCLE
TAF COR
KCLE 131158Z 1312/1418 25012KT P6SM VCSH SCT015 OVC035
      TEMPO 1312/1313 1SM -SHSN BKN015 OVC025
     FM131500 22010KT P6SM SCT025 OVC035
     FM131800 19010KT 2SM -SN OVC015
      TEMPO 1400/1404 1/2SM SN OVC006
     FM140600 01010KT 3SM -SN BKN008 OVC015
     FM141000 34012KT P6SM VCSH SCT015 OVC025=

USA.gov is the U.S. government's official web portal to all federal, state and local government web resources and services.